Chicago, Illinois
Traffic Map
Current Weather Conditions
Chicago, Illinois
Broken Clouds
Broken Clouds
26°
Feels Like: 26°
Wind Chill: 26° Ceiling: 6500
Heat Index: 26° Visibility: 10mi
Dew Point: 16° Wind: 7mph
Humidity: 54% Direction: 330° (NNW)
Pressure: 29.81in Gusts: 0mph
Raw Report DataKMDW 302053Z 33006KT 10SM SCT042 BKN065 26/16 A2981 RMK AO2 SLP086 T02560156 53001
Traffic Incident Summary
Active as of:
Severity:
Category:
InformationThere was an issue retrieving the traffic information for this location. Please try a different location or try again shortly.
Advertisements
Track Severe Weather on mobile